Time;durP1;ratioP1;P1;durP2;ratioP2;P2;SDS_P1;SDS_P2;PMS_P1;PMS_P2;Temp;Humidity;BMP_temperature;BMP_pressure;BME280_temperature;BME280_humidity;BME280_pressure;Samples;Min_cycle;Max_cycle;Signal;HPM_P1;HPM_P2
2023/10/11 00:04:23;;;;;;;955.55;871.47;;;;;;;;;;10414190;28;20031;-68
2023/10/11 00:09:35;;;;;;;922.67;840.58;;;;;;;;;;10414067;28;20018;-69
2023/10/11 00:14:39;;;;;;;937.15;852.20;;;;;;;;;;10414832;28;20331;-69
2023/10/11 00:19:40;;;;;;;946.33;864.22;;;;;;;;;;10427178;28;20312;-69
2023/10/11 00:24:40;;;;;;;929.17;846.90;;;;;;;;;;10421220;28;20017;-69
2023/10/11 00:29:40;;;;;;;921.42;841.10;;;;;;;;;;10420728;28;20472;-69
2023/10/11 00:34:40;;;;;;;912.78;832.90;;;;;;;;;;10420639;28;20338;-69
2023/10/11 00:39:41;;;;;;;898.92;820.05;;;;;;;;;;10401156;28;20112;-68
2023/10/11 00:44:42;;;;;;;903.13;822.55;;;;;;;;;;10401880;28;20033;-68
2023/10/11 00:49:45;;;;;;;926.30;844.05;;;;;;;;;;10420295;28;20025;-69
2023/10/11 00:54:46;;;;;;;913.25;831.30;;;;;;;;;;10420385;28;20021;-69
2023/10/11 00:59:46;;;;;;;927.67;843.33;;;;;;;;;;10420362;28;20347;-69
2023/10/11 01:04:46;;;;;;;897.35;811.83;;;;;;;;;;10419800;28;20021;-69
2023/10/11 01:09:47;;;;;;;895.40;810.78;;;;;;;;;;10419591;28;20144;-69
2023/10/11 01:14:59;;;;;;;875.50;792.25;;;;;;;;;;10419091;28;20025;-69
2023/10/11 01:20:00;;;;;;;864.75;787.47;;;;;;;;;;10417673;28;20339;-68
2023/10/11 01:25:01;;;;;;;882.00;797.25;;;;;;;;;;10418848;28;20021;-68
2023/10/11 01:30:03;;;;;;;876.72;791.72;;;;;;;;;;10417975;28;20021;-68
2023/10/11 01:35:04;;;;;;;886.65;801.72;;;;;;;;;;10417245;28;20415;-68
2023/10/11 01:40:07;;;;;;;859.97;775.95;;;;;;;;;;10420202;28;20076;-68
2023/10/11 01:45:08;;;;;;;860.88;780.97;;;;;;;;;;10418455;28;20112;-69
2023/10/11 01:50:08;;;;;;;872.75;794.58;;;;;;;;;;10418508;28;20021;-68
2023/10/11 01:55:13;;;;;;;866.40;787.38;;;;;;;;;;10417711;28;20032;-68
2023/10/11 02:00:14;;;;;;;880.53;800.28;;;;;;;;;;10417984;28;20096;-68
2023/10/11 02:05:15;;;;;;;880.63;801.28;;;;;;;;;;10417172;28;20076;-69
2023/10/11 02:10:16;;;;;;;894.50;814.45;;;;;;;;;;10416905;28;20029;-69
2023/10/11 02:15:22;;;;;;;887.22;808.08;;;;;;;;;;10416820;28;20250;-69
2023/10/11 02:20:22;;;;;;;886.33;807.38;;;;;;;;;;10416925;28;20025;-68
2023/10/11 02:25:26;;;;;;;871.47;795.40;;;;;;;;;;10416757;28;20247;-69
2023/10/11 02:30:27;;;;;;;909.80;830.03;;;;;;;;;;10393326;28;20021;-68
2023/10/11 02:35:27;;;;;;;785.90;731.88;;;;;;;;;;10416450;28;20013;-68
2023/10/11 02:40:30;;;;;;;804.97;748.83;;;;;;;;;;10414951;28;20286;-69
2023/10/11 02:45:33;;;;;;;909.40;829.67;;;;;;;;;;10414865;28;20017;-70
2023/10/11 02:50:36;;;;;;;804.70;747.95;;;;;;;;;;10416224;28;20040;-68
2023/10/11 02:55:38;;;;;;;655.42;611.80;;;;;;;;;;10415204;28;20044;-68
2023/10/11 03:00:43;;;;;;;676.17;630.90;;;;;;;;;;10415663;28;20322;-68
2023/10/11 03:05:45;;;;;;;640.35;598.58;;;;;;;;;;10414877;28;20017;-68
2023/10/11 03:10:53;;;;;;;748.17;696.42;;;;;;;;;;10415297;28;20088;-69
2023/10/11 03:15:56;;;;;;;843.17;783.47;;;;;;;;;;10413910;28;20028;-69
2023/10/11 03:21:16;;;;;;;669.75;624.45;;;;;;;;;;10415167;28;20025;-69
2023/10/11 03:26:38;;;;;;;514.40;482.95;;;;;;;;;;10415639;28;20302;-69
2023/10/11 03:31:40;;;;;;;777.65;722.40;;;;;;;;;;10414969;28;20157;-69
2023/10/11 03:36:49;;;;;;;545.97;510.88;;;;;;;;;;10386750;28;20323;-69
2023/10/11 03:41:50;;;;;;;552.65;516.22;;;;;;;;;;10399683;28;20325;-69
2023/10/11 03:46:54;;;;;;;634.22;591.42;;;;;;;;;;10414530;28;20238;-69
2023/10/11 03:51:54;;;;;;;806.80;746.72;;;;;;;;;;10419818;28;20354;-68
2023/10/11 03:56:55;;;;;;;834.03;770.08;;;;;;;;;;10421124;28;20022;-69
2023/10/11 04:01:59;;;;;;;840.38;776.38;;;;;;;;;;10421941;28;20032;-69
2023/10/11 04:07:05;;;;;;;723.67;673.08;;;;;;;;;;10422210;28;20430;-69
2023/10/11 04:12:10;;;;;;;832.53;771.13;;;;;;;;;;10421431;28;20327;-69
2023/10/11 04:22:23;;;;;;;841.10;777.17;;;;;;;;;;10420989;28;20058;-69
2023/10/11 04:32:45;;;;;;;330.00;306.95;;;;;;;;;;10421344;28;20036;-68
2023/10/11 04:37:52;;;;;;;815.28;756.83;;;;;;;;;;10420191;28;20056;-69
2023/10/11 04:43:04;;;;;;;812.33;754.10;;;;;;;;;;10421189;28;20381;-69
2023/10/11 04:48:04;;;;;;;826.20;765.55;;;;;;;;;;10419157;28;20032;-69
2023/10/11 04:53:04;;;;;;;820.38;760.17;;;;;;;;;;10420681;28;20149;-68
2023/10/11 04:58:07;;;;;;;808.30;747.95;;;;;;;;;;10419296;28;20315;-69
2023/10/11 05:03:09;;;;;;;26.75;24.50;;;;;;;;;;10418781;28;20042;-69
2023/10/11 05:08:21;;;;;;;350.52;326.45;;;;;;;;;;10419137;28;20201;-68
2023/10/11 05:13:36;;;;;;;837.78;776.42;;;;;;;;;;10419051;28;20053;-68
2023/10/11 05:18:38;;;;;;;838.20;774.03;;;;;;;;;;10417622;28;20017;-68
2023/10/11 05:24:14;;;;;;;878.75;812.65;;;;;;;;;;10418318;28;20145;-68
2023/10/11 05:29:51;;;;;;;773.47;714.47;;;;;;;;;;10418107;28;20327;-69
2023/10/11 05:34:50;;;;;;;688.97;636.83;;;;;;;;;;10417795;28;20323;-67
2023/10/11 05:50:54;;;;;;;841.95;774.20;;;;;;;;;;10417740;28;20100;-68
2023/10/11 05:55:54;;;;;;;258.60;238.95;;;;;;;;;;10417192;28;20242;-68
2023/10/11 06:00:55;;;;;;;828.22;760.78;;;;;;;;;;10417211;28;20021;-69
2023/10/11 06:05:55;;;;;;;386.47;358.27;;;;;;;;;;10416948;28;20105;-69
2023/10/11 06:10:55;;;;;;;882.03;814.80;;;;;;;;;;10416889;28;20441;-68
2023/10/11 06:15:58;;;;;;;923.38;852.40;;;;;;;;;;10416809;28;20013;-69
2023/10/11 06:21:05;;;;;;;446.30;413.60;;;;;;;;;;10416746;28;20294;-69
2023/10/11 06:26:28;;;;;;;853.22;788.50;;;;;;;;;;10416637;28;20013;-69
2023/10/11 06:31:25;;;;;;;849.70;786.97;;;;;;;;;;10402501;28;20498;-69
2023/10/11 06:36:29;;;;;;;368.27;343.60;;;;;;;;;;10415950;28;20040;-69
2023/10/11 06:41:45;;;;;;;889.03;823.92;;;;;;;;;;10415719;28;20335;-69
2023/10/11 06:46:50;;;;;;;945.50;875.72;;;;;;;;;;10415871;28;20024;-68
2023/10/11 06:51:52;;;;;;;990.80;912.97;;;;;;;;;;10397748;28;20049;-68
2023/10/11 06:56:52;;;;;;;938.53;869.33;;;;;;;;;;10410409;28;20252;-67
2023/10/11 07:01:52;;;;;;;951.28;878.00;;;;;;;;;;10414978;28;20417;-67
2023/10/11 07:06:52;;;;;;;976.97;900.03;;;;;;;;;;10414478;28;20092;-67
2023/10/11 07:12:28;;;;;;;956.83;882.97;;;;;;;;;;10414663;28;20328;-67
2023/10/11 07:17:13;;;;;;;981.40;905.95;;;;;;;;;;10414874;28;20036;-67
2023/10/11 07:22:18;;;;;;;944.63;871.40;;;;;;;;;;10414364;28;20021;-67
2023/10/11 07:27:26;;;;;;;942.33;869.10;;;;;;;;;;10421253;28;20311;-68
2023/10/11 07:32:27;;;;;;;964.33;891.28;;;;;;;;;;10423212;28;20043;-68
2023/10/11 07:37:27;;;;;;;959.03;886.17;;;;;;;;;;10422853;28;20369;-68
2023/10/11 07:42:36;;;;;;;954.47;881.67;;;;;;;;;;10423336;28;20037;-67
2023/10/11 07:47:37;;;;;;;958.53;885.42;;;;;;;;;;10428009;28;20311;-67
2023/10/11 07:52:37;;;;;;;982.58;909.72;;;;;;;;;;10422444;28;20070;-68
2023/10/11 07:57:44;;;;;;;991.88;918.15;;;;;;;;;;10421789;28;20059;-68
2023/10/11 08:03:05;;;;;;;959.97;884.90;;;;;;;;;;10420690;28;20025;-68
2023/10/11 08:08:05;;;;;;;990.40;914.85;;;;;;;;;;10421475;28;20189;-67
2023/10/11 08:13:14;;;;;;;1020.47;939.77;;;;;;;;;;10420950;28;20036;-68
2023/10/11 08:18:16;;;;;;;1012.45;931.13;;;;;;;;;;10421366;28;20025;-69
2023/10/11 08:23:28;;;;;;;1047.35;954.55;;;;;;;;;;10421752;28;20112;-69
2023/10/11 08:28:28;;;;;;;1084.68;982.58;;;;;;;;;;10420827;28;20017;-69
2023/10/11 08:33:31;;;;;;;1122.40;999.90;;;;;;;;;;10408639;28;20308;-69
2023/10/11 08:38:35;;;;;;;1127.70;999.90;;;;;;;;;;10403104;28;20041;-68
2023/10/11 08:43:37;;;;;;;1119.57;999.90;;;;;;;;;;10419818;28;20096;-67
2023/10/11 08:48:40;;;;;;;1071.53;982.13;;;;;;;;;;10420012;28;20045;-68
2023/10/11 08:53:47;;;;;;;1072.82;984.50;;;;;;;;;;10419836;28;20021;-67
2023/10/11 08:58:51;;;;;;;1146.17;999.90;;;;;;;;;;10419849;28;20036;-67
2023/10/11 09:04:12;;;;;;;585.33;534.92;;;;;;;;;;10420291;28;20373;-67
2023/10/11 09:09:33;;;;;;;591.40;541.70;;;;;;;;;;10419303;28;20014;-68
2023/10/11 09:14:34;;;;;;;20.33;13.90;;;;;;;;;;10419091;28;20077;-67
2023/10/11 09:19:48;;;;;;;124.22;115.53;;;;;;;;;;10418960;28;20414;-68
2023/10/11 09:25:06;;;;;;;232.95;216.35;;;;;;;;;;10418628;28;20021;-67
2023/10/11 09:30:19;;;;;;;8.13;3.53;;;;;;;;;;10423112;28;20080;-67
2023/10/11 09:35:31;;;;;;;9.20;3.22;;;;;;;;;;10418306;28;20184;-67
2023/10/11 09:40:33;;;;;;;10.88;2.90;;;;;;;;;;10417567;28;20373;-67
2023/10/11 09:45:43;;;;;;;12.25;4.03;;;;;;;;;;10417568;28;20316;-68
2023/10/11 09:50:43;;;;;;;6.80;2.70;;;;;;;;;;10417424;28;20085;-68
2023/10/11 09:55:49;;;;;;;7.88;3.00;;;;;;;;;;10417554;28;20048;-68
2023/10/11 10:00:58;;;;;;;8.25;2.50;;;;;;;;;;10416600;28;20025;-67
2023/10/11 10:06:18;;;;;;;4.22;2.40;;;;;;;;;;10417447;28;20232;-68
2023/10/11 10:11:19;;;;;;;6.38;2.42;;;;;;;;;;10405362;28;20035;-67
2023/10/11 10:16:39;;;;;;;4.43;2.00;;;;;;;;;;10416854;28;20017;-68
2023/10/11 10:22:15;;;;;;;322.95;294.60;;;;;;;;;;10416224;28;20025;-67
2023/10/11 10:27:34;;;;;;;1054.50;963.10;;;;;;;;;;10386372;28;20052;-69
2023/10/11 10:32:34;;;;;;;1132.88;999.90;;;;;;;;;;10416353;28;20235;-69
2023/10/11 10:38:09;;;;;;;1199.55;999.90;;;;;;;;;;10415222;28;20037;-69
2023/10/11 10:43:27;;;;;;;1228.18;999.90;;;;;;;;;;10411214;28;20086;-68
2023/10/11 10:48:39;;;;;;;9.40;1.60;;;;;;;;;;10415458;28;20043;-68
2023/10/11 10:53:50;;;;;;;1227.65;999.90;;;;;;;;;;10415371;28;20311;-69
2023/10/11 10:59:03;;;;;;;5.18;2.10;;;;;;;;;;10414696;28;20029;-68
2023/10/11 11:04:07;;;;;;;4.82;2.10;;;;;;;;;;10415849;28;20063;-68
2023/10/11 11:09:28;;;;;;;174.80;158.90;;;;;;;;;;10414757;28;20018;-68
2023/10/11 11:14:28;;;;;;;896.83;820.10;;;;;;;;;;10415089;28;20017;-68
2023/10/11 11:19:34;;;;;;;1193.03;999.90;;;;;;;;;;10414294;28;20083;-68
2023/10/11 11:24:34;;;;;;;7.07;2.60;;;;;;;;;;10415170;28;20315;-68
2023/10/11 11:29:35;;;;;;;6.07;2.55;;;;;;;;;;10415631;28;20301;-68
2023/10/11 11:34:37;;;;;;;1135.60;999.90;;;;;;;;;;10415218;28;20028;-67
2023/10/11 11:39:39;;;;;;;5.72;2.22;;;;;;;;;;10414247;28;20033;-68
2023/10/11 11:44:41;;;;;;;4.65;2.08;;;;;;;;;;10414453;28;20173;-68
2023/10/11 11:49:41;;;;;;;5.47;2.70;;;;;;;;;;10414334;28;20044;-69
2023/10/11 11:54:43;;;;;;;10.30;2.80;;;;;;;;;;10413308;28;20196;-69
2023/10/11 11:59:43;;;;;;;3.85;2.50;;;;;;;;;;10419677;28;20331;-68
2023/10/11 12:04:44;;;;;;;891.75;817.35;;;;;;;;;;10414128;28;20018;-69
2023/10/11 12:09:44;;;;;;;1093.13;998.83;;;;;;;;;;10414157;28;20052;-68
2023/10/11 12:14:44;;;;;;;1119.75;999.90;;;;;;;;;;10420550;28;20354;-68
2023/10/11 12:19:45;;;;;;;1126.88;999.90;;;;;;;;;;10421133;28;20041;-69
2023/10/11 12:24:45;;;;;;;1101.15;998.67;;;;;;;;;;10396966;28;20017;-68
2023/10/11 12:29:48;;;;;;;1120.20;999.90;;;;;;;;;;10406914;28;20201;-68
2023/10/11 12:34:51;;;;;;;246.88;226.18;;;;;;;;;;10420569;28;20063;-68
2023/10/11 12:39:53;;;;;;;6.57;4.03;;;;;;;;;;10420486;28;20075;-67
2023/10/11 12:44:53;;;;;;;7.05;3.08;;;;;;;;;;10419282;28;20033;-68
2023/10/11 12:49:54;;;;;;;6.45;2.72;;;;;;;;;;10420241;28;20314;-68
2023/10/11 12:54:54;;;;;;;3.63;2.67;;;;;;;;;;10419746;28;20156;-68
2023/10/11 12:59:58;;;;;;;9.48;2.28;;;;;;;;;;10419735;28;20079;-69
2023/10/11 13:04:59;;;;;;;2.85;2.10;;;;;;;;;;10420455;28;20204;-66
2023/10/11 13:10:06;;;;;;;7.03;2.60;;;;;;;;;;10419733;28;20017;-67
2023/10/11 13:15:16;;;;;;;8.15;2.33;;;;;;;;;;10416484;28;20021;-71
2023/10/11 13:20:19;;;;;;;6.95;2.75;;;;;;;;;;10417455;28;20358;-68
2023/10/11 13:25:23;;;;;;;5.13;2.58;;;;;;;;;;10415907;28;20039;-68
2023/10/11 13:30:24;;;;;;;4.63;2.35;;;;;;;;;;10417664;28;20112;-68
2023/10/11 13:35:24;;;;;;;2.88;2.08;;;;;;;;;;10416778;28;20025;-69
2023/10/11 13:40:25;;;;;;;6.55;2.15;;;;;;;;;;10417181;28;20037;-69
2023/10/11 13:45:27;;;;;;;5.63;2.28;;;;;;;;;;10417050;28;20216;-68
2023/10/11 13:50:35;;;;;;;3.67;2.03;;;;;;;;;;10417385;28;20022;-68
2023/10/11 13:55:39;;;;;;;9.38;2.50;;;;;;;;;;10416425;28;20096;-68
2023/10/11 14:05:45;;;;;;;4.03;2.63;;;;;;;;;;10416247;28;20025;-68
2023/10/11 14:10:46;;;;;;;5.57;2.10;;;;;;;;;;10424014;28;20028;-69
2023/10/11 14:15:46;;;;;;;3.30;1.92;;;;;;;;;;10414704;28;20232;-67
2023/10/11 14:20:55;;;;;;;5.78;1.77;;;;;;;;;;10416140;28;20025;-68
2023/10/11 14:25:56;;;;;;;4.82;1.90;;;;;;;;;;10405531;28;20044;-67
2023/10/11 14:30:57;;;;;;;7.05;1.70;;;;;;;;;;10416258;28;20032;-69
2023/10/11 14:35:58;;;;;;;5.00;1.90;;;;;;;;;;10415438;28;20358;-68
2023/10/11 14:41:06;;;;;;;11.00;2.47;;;;;;;;;;10415039;28;20041;-68
2023/10/11 14:46:06;;;;;;;;;;;;;;;;;;10416582;28;20043;-68
2023/10/11 14:51:10;;;;;;;4.00;2.53;;;;;;;;;;10414909;28;19967;-69
2023/10/11 14:56:10;;;;;;;13.52;2.90;;;;;;;;;;10415330;28;20031;-68
2023/10/11 15:01:14;;;;;;;11.23;2.70;;;;;;;;;;10413899;28;20196;-69
2023/10/11 15:06:14;;;;;;;4.10;2.38;;;;;;;;;;10415277;28;20346;-67
2023/10/11 15:11:20;;;;;;;10.07;2.47;;;;;;;;;;10415237;28;20326;-67
2023/10/11 15:16:20;;;;;;;7.13;4.43;;;;;;;;;;10415090;28;20311;-67
2023/10/11 15:21:22;;;;;;;11.52;2.60;;;;;;;;;;10415043;28;20030;-68
2023/10/11 15:26:23;;;;;;;6.97;2.33;;;;;;;;;;10414324;28;20017;-68
2023/10/11 15:31:24;;;;;;;14.57;3.63;;;;;;;;;;10414202;28;20084;-68
2023/10/11 15:36:28;;;;;;;20.23;8.95;;;;;;;;;;10414404;28;20173;-68
2023/10/11 15:41:28;;;;;;;532.60;495.55;;;;;;;;;;10412947;28;20045;-68
2023/10/11 15:46:28;;;;;;;376.30;353.35;;;;;;;;;;10382183;28;20036;-68
2023/10/11 15:51:29;;;;;;;900.30;835.93;;;;;;;;;;10414773;28;20259;-67
2023/10/11 15:56:31;;;;;;;883.33;818.70;;;;;;;;;;10422011;28;20075;-67
2023/10/11 16:01:32;;;;;;;954.80;882.88;;;;;;;;;;10421751;28;20017;-67
2023/10/11 16:06:32;;;;;;;980.17;899.55;;;;;;;;;;10421931;28;20316;-67
2023/10/11 16:11:33;;;;;;;862.27;793.37;;;;;;;;;;10420147;28;20052;-67
2023/10/11 16:16:34;;;;;;;1005.83;928.20;;;;;;;;;;10421453;28;20084;-68
2023/10/11 16:21:35;;;;;;;952.47;879.90;;;;;;;;;;10422433;28;20021;-67
2023/10/11 16:26:36;;;;;;;994.25;912.67;;;;;;;;;;10421204;28;20334;-68
2023/10/11 16:31:37;;;;;;;947.57;874.77;;;;;;;;;;10421111;28;20299;-69
2023/10/11 16:36:37;;;;;;;987.28;903.42;;;;;;;;;;10419294;28;20013;-69
2023/10/11 16:41:37;;;;;;;996.92;909.30;;;;;;;;;;10419994;28;20128;-69
2023/10/11 16:46:37;;;;;;;973.63;894.75;;;;;;;;;;10420713;28;20206;-69
2023/10/11 16:51:38;;;;;;;1004.60;918.38;;;;;;;;;;10420270;28;20025;-68
2023/10/11 16:56:39;;;;;;;979.23;890.60;;;;;;;;;;10418878;28;20021;-69
2023/10/11 17:01:39;;;;;;;972.38;888.15;;;;;;;;;;10420038;28;20279;-69
2023/10/11 17:06:40;;;;;;;981.72;894.55;;;;;;;;;;10419800;28;20032;-69
2023/10/11 17:11:40;;;;;;;949.10;868.53;;;;;;;;;;10419529;28;20028;-69
2023/10/11 17:16:40;;;;;;;891.70;823.25;;;;;;;;;;10419905;28;20020;-69
2023/10/11 17:21:43;;;;;;;908.75;837.28;;;;;;;;;;10419237;28;20020;-69
2023/10/11 17:26:44;;;;;;;922.53;844.95;;;;;;;;;;10418693;28;20021;-69
2023/10/11 17:31:44;;;;;;;942.70;861.85;;;;;;;;;;10419235;28;20064;-68
2023/10/11 17:36:46;;;;;;;945.80;867.92;;;;;;;;;;10418721;28;20207;-69
2023/10/11 17:41:46;;;;;;;8.98;4.07;;;;;;;;;;10418390;28;20236;-68
2023/10/11 17:46:47;;;;;;;838.37;774.07;;;;;;;;;;10418423;28;20079;-68
2023/10/11 17:51:47;;;;;;;16.85;12.88;;;;;;;;;;10418420;28;20256;-68
2023/10/11 17:56:47;;;;;;;483.05;443.80;;;;;;;;;;10412093;28;20087;-69
2023/10/11 18:01:48;;;;;;;892.67;821.40;;;;;;;;;;10413320;28;20394;-69
2023/10/11 18:06:48;;;;;;;6.93;3.95;;;;;;;;;;10413768;28;20343;-68
2023/10/11 18:11:49;;;;;;;10.05;3.83;;;;;;;;;;10412442;28;20036;-68
2023/10/11 18:16:49;;;;;;;873.72;802.00;;;;;;;;;;10413155;28;20021;-68
2023/10/11 18:21:49;;;;;;;676.08;627.75;;;;;;;;;;10413402;28;20025;-67
2023/10/11 18:26:49;;;;;;;6.25;4.68;;;;;;;;;;10409676;28;20350;-68
2023/10/11 18:31:52;;;;;;;9.47;4.43;;;;;;;;;;10411198;28;20029;-68
2023/10/11 18:36:52;;;;;;;404.35;378.60;;;;;;;;;;10412096;28;20195;-68
2023/10/11 18:41:52;;;;;;;175.90;161.68;;;;;;;;;;10411837;28;20088;-69
2023/10/11 18:46:52;;;;;;;6.73;4.70;;;;;;;;;;10411696;28;20029;-69
2023/10/11 18:51:53;;;;;;;600.43;558.37;;;;;;;;;;10411958;28;20013;-70
2023/10/11 18:56:53;;;;;;;9.88;5.32;;;;;;;;;;10411295;28;20020;-70
2023/10/11 19:01:54;;;;;;;10.55;4.38;;;;;;;;;;10411109;28;20032;-70
2023/10/11 19:06:54;;;;;;;601.45;560.17;;;;;;;;;;10411391;28;20202;-70
2023/10/11 19:11:56;;;;;;;9.63;5.85;;;;;;;;;;10412072;28;20017;-69
2023/10/11 19:16:56;;;;;;;9.45;5.28;;;;;;;;;;10411244;28;20052;-69
2023/10/11 19:21:57;;;;;;;12.00;6.18;;;;;;;;;;10413786;28;20345;-71
2023/10/11 19:26:57;;;;;;;6.03;4.43;;;;;;;;;;10419850;28;20025;-70
2023/10/11 19:31:57;;;;;;;9.50;5.47;;;;;;;;;;10419235;28;20346;-72
2023/10/11 19:36:58;;;;;;;8.18;5.70;;;;;;;;;;10418816;28;20068;-72
2023/10/11 19:41:58;;;;;;;10.25;5.10;;;;;;;;;;10419247;28;20092;-71
2023/10/11 19:46:58;;;;;;;11.67;5.30;;;;;;;;;;10418651;28;20090;-71
2023/10/11 19:51:59;;;;;;;9.27;4.68;;;;;;;;;;10418665;28;20193;-72
2023/10/11 19:57:00;;;;;;;12.48;6.80;;;;;;;;;;10418297;28;20081;-71
2023/10/11 20:02:01;;;;;;;12.15;5.65;;;;;;;;;;10418256;28;20033;-71
2023/10/11 20:07:01;;;;;;;13.95;5.60;;;;;;;;;;10418786;28;20021;-70
2023/10/11 20:12:01;;;;;;;8.32;5.22;;;;;;;;;;10418853;28;20018;-70
2023/10/11 20:17:07;;;;;;;13.00;6.00;;;;;;;;;;10418275;28;20160;-70
2023/10/11 20:22:11;;;;;;;513.75;476.23;;;;;;;;;;10417006;28;20017;-70
2023/10/11 20:27:12;;;;;;;13.70;5.75;;;;;;;;;;10415702;28;20009;-69
2023/10/11 20:32:12;;;;;;;12.70;5.53;;;;;;;;;;10416729;28;20025;-71
2023/10/11 20:37:12;;;;;;;14.95;6.60;;;;;;;;;;10417232;28;20064;-71
2023/10/11 20:42:12;;;;;;;13.90;5.53;;;;;;;;;;10416537;28;20048;-71
2023/10/11 20:47:13;;;;;;;11.35;5.82;;;;;;;;;;10416732;28;20096;-70
2023/10/11 20:52:14;;;;;;;8.57;5.22;;;;;;;;;;10415901;28;20036;-71
2023/10/11 20:57:21;;;;;;;8.87;5.07;;;;;;;;;;10416399;28;20029;-71
2023/10/11 21:02:21;;;;;;;9.55;5.55;;;;;;;;;;10415160;28;20067;-70
2023/10/11 21:07:24;;;;;;;14.82;5.78;;;;;;;;;;10415718;28;20020;-71
2023/10/11 21:12:24;;;;;;;13.07;5.40;;;;;;;;;;10425168;28;20025;-71
2023/10/11 21:17:24;;;;;;;10.32;5.45;;;;;;;;;;10411961;28;20223;-71
2023/10/11 21:22:24;;;;;;;12.70;4.80;;;;;;;;;;10413607;28;20326;-71
2023/10/11 21:27:25;;;;;;;9.02;4.32;;;;;;;;;;10413845;28;20410;-71
2023/10/11 21:32:25;;;;;;;9.68;5.68;;;;;;;;;;10413728;28;20274;-70
2023/10/11 21:37:25;;;;;;;12.75;5.70;;;;;;;;;;10413030;28;20033;-70
2023/10/11 21:42:26;;;;;;;11.18;5.53;;;;;;;;;;10412765;28;20262;-71
2023/10/11 21:47:27;;;;;;;13.63;5.95;;;;;;;;;;10413002;28;20333;-71
2023/10/11 21:52:27;;;;;;;9.30;4.97;;;;;;;;;;10411489;28;20017;-71
2023/10/11 21:57:27;;;;;;;8.30;4.95;;;;;;;;;;10412732;28;20025;-70
2023/10/11 22:02:33;;;;;;;7.57;4.80;;;;;;;;;;10416628;28;20259;-72
2023/10/11 22:07:35;;;;;;;11.20;4.97;;;;;;;;;;10417228;28;20031;-71
2023/10/11 22:12:38;;;;;;;15.15;5.38;;;;;;;;;;10416447;28;20057;-71
2023/10/11 22:17:43;;;;;;;12.98;5.43;;;;;;;;;;10417069;28;20013;-72
2023/10/11 22:22:44;;;;;;;7.53;5.05;;;;;;;;;;10417432;28;20021;-72
2023/10/11 22:27:44;;;;;;;13.55;4.85;;;;;;;;;;10416387;28;20251;-71
2023/10/11 22:32:45;;;;;;;13.07;5.10;;;;;;;;;;10417138;28;20025;-71
2023/10/11 22:37:46;;;;;;;14.77;4.95;;;;;;;;;;10416462;28;20041;-71
2023/10/11 22:42:46;;;;;;;10.02;6.00;;;;;;;;;;10416133;28;20026;-72
2023/10/11 22:47:47;;;;;;;7.43;4.27;;;;;;;;;;10415389;28;20319;-71
2023/10/11 22:52:52;;;;;;;12.25;5.70;;;;;;;;;;10416480;28;20260;-71
2023/10/11 22:57:52;;;;;;;12.68;6.32;;;;;;;;;;10415233;28;20031;-72
2023/10/11 23:02:53;;;;;;;11.93;4.90;;;;;;;;;;10416146;28;20029;-73
2023/10/11 23:07:53;;;;;;;10.40;5.50;;;;;;;;;;10416173;28;20363;-72
2023/10/11 23:12:56;;;;;;;8.27;4.97;;;;;;;;;;10415831;28;20021;-71
2023/10/11 23:18:12;;;;;;;9.90;4.80;;;;;;;;;;10414638;28;20021;-71
2023/10/11 23:23:12;;;;;;;9.30;5.05;;;;;;;;;;10415737;28;20226;-71
2023/10/11 23:28:13;;;;;;;7.97;5.03;;;;;;;;;;10414243;28;20025;-71
2023/10/11 23:33:15;;;;;;;8.60;5.35;;;;;;;;;;10415408;28;20025;-71
2023/10/11 23:38:42;;;;;;;14.90;5.82;;;;;;;;;;10415160;28;20324;-72
2023/10/11 23:43:46;;;;;;;9.52;4.80;;;;;;;;;;10413730;28;20025;-71
2023/10/11 23:48:47;;;;;;;7.95;4.60;;;;;;;;;;10415120;28;20342;-72
2023/10/11 23:53:48;;;;;;;10.00;4.60;;;;;;;;;;10414563;28;20072;-72
2023/10/11 23:58:56;;;;;;;8.68;4.43;;;;;;;;;;10414577;28;20081;-72
